الصفحة الرئيسية
METAR-TAF:

METAR-TAF

مطار :

Paraburdoo, أستراليا

دائرة عرض: 23-10-17S, خط طول: 117-44-44E, ارتفاع: 429 متر

مراقبة الطقس الحالي

تاريخ ووقت الإصدار 59 دقيقة قبل الساعة 06:00UTC
ريح 6 عقدة من الجنوب/الجنوب الشرقي
درجة الحرارة 31°درجة مئوية
الرطوبة 29%
ضغط 1010 hPa
الرؤية 10 كم أو أكثر
غيوم متفرقة على ارتفاع 10000 قدم
غيوم متفرقة على ارتفاع 12500 قدم

METAR: YPBO 060600Z AUTO 15006KT 9999 // SCT100 SCT125 31/11 Q1010

زمن: 14:59 (06:59 UTC)


TAF: مفقودة

أرصاد الطقس والتوقعات من أكثر من 4000 مطار (تقارير الطقس للمطار METAR والتنبؤ بالطقس بالمطارTAF).

المحطات المتاحة هي النقط الصفراء والحمراء على الخريطة.

حرك المؤشر فوق النقطة لمعرفة اسم المحطة.

ثم انقر لمعرفة أرصاد وتوقعات الطقس.

لتغيير الخارطة: اضغط على الأزرار الخضراء مع رمز الصليب الأسود للتكبير. على الزر الأخضر مع شرطة للتصغير، أو على الأسهم الخضراء للخرائط المجاورة.


METAR-TAF: